createdAt,value
2023-04-15T00:01:49.875Z,52.99
2023-04-15T00:04:16.547Z,52.77
2023-04-15T00:06:43.109Z,52.71
2023-04-15T00:09:09.517Z,52.69
2023-04-15T00:11:35.921Z,52.66
2023-04-15T00:14:02.353Z,52.93
2023-04-15T00:16:28.841Z,53.21
2023-04-15T00:18:55.539Z,53.16
2023-04-15T00:21:22.131Z,53.25
2023-04-15T00:23:52.643Z,53.06
2023-04-15T00:26:19.674Z,52.96
2023-04-15T00:28:46.741Z,53.22
2023-04-15T00:31:13.332Z,53.52
2023-04-15T00:33:40.120Z,53.70
2023-04-15T00:36:07.323Z,53.84
2023-04-15T00:38:33.776Z,53.58
2023-04-15T00:41:00.228Z,53.85
2023-04-15T00:43:26.665Z,53.98
2023-04-15T00:45:54.505Z,54.09
2023-04-15T00:48:21.279Z,54.12
2023-04-15T00:50:47.713Z,54.53
2023-04-15T00:53:14.101Z,54.57
2023-04-15T00:55:40.595Z,54.71
2023-04-15T00:58:07.135Z,54.75
2023-04-15T01:00:34.568Z,54.72
2023-04-15T01:03:01.734Z,54.68
2023-04-15T01:05:28.542Z,54.93
2023-04-15T01:07:55.430Z,54.87
2023-04-15T01:10:22.170Z,54.88
2023-04-15T01:12:48.726Z,55.02
2023-04-15T01:15:16.047Z,55.30
2023-04-15T01:17:42.752Z,55.63
2023-04-15T01:20:12.568Z,55.24
2023-04-15T01:22:39.343Z,55.60
2023-04-15T01:25:18.768Z,55.71
2023-04-15T01:27:45.623Z,55.91
2023-04-15T01:30:12.206Z,56.47
2023-04-15T01:32:38.782Z,56.62
2023-04-15T01:35:05.768Z,57.05
2023-04-15T01:37:32.579Z,57.21
2023-04-15T01:39:59.001Z,57.28
2023-04-15T01:42:25.403Z,57.59
2023-04-15T01:44:51.992Z,57.55
2023-04-15T01:47:18.576Z,57.85
2023-04-15T01:49:44.957Z,58.08
2023-04-15T01:52:11.441Z,58.40
2023-04-15T01:54:37.868Z,58.60
2023-04-15T01:57:05.533Z,58.23
2023-04-15T01:59:32.169Z,58.64
2023-04-15T02:01:59.041Z,58.62
2023-04-15T02:04:25.586Z,58.26
2023-04-15T02:06:52.007Z,58.56
2023-04-15T02:09:18.463Z,58.88
2023-04-15T02:11:46.240Z,59.31
2023-04-15T02:14:12.719Z,58.66
2023-04-15T02:16:39.207Z,59.41
2023-04-15T02:19:05.707Z,59.39
2023-04-15T02:21:32.174Z,59.41
2023-04-15T02:23:58.588Z,60.16
2023-04-15T02:26:25.353Z,60.44
2023-04-15T02:28:51.761Z,60.57
2023-04-15T02:31:18.504Z,60.67
2023-04-15T02:33:45.371Z,61.29
2023-04-15T02:36:12.442Z,60.80
2023-04-15T02:38:41.281Z,61.17
2023-04-15T02:41:08.606Z,61.73
2023-04-15T02:43:35.146Z,61.42
2023-04-15T02:46:01.612Z,61.68
2023-04-15T02:48:28.413Z,61.88
2023-04-15T02:51:11.161Z,62.80
2023-04-15T02:53:37.580Z,62.30
2023-04-15T02:56:04.371Z,62.39
2023-04-15T02:58:30.770Z,62.71
2023-04-15T03:00:57.649Z,62.36
2023-04-15T03:03:24.248Z,63.11
2023-04-15T03:05:50.784Z,63.20
2023-04-15T03:08:17.203Z,62.92
2023-04-15T03:10:43.585Z,63.10
2023-04-15T03:13:10.065Z,62.98
2023-04-15T03:15:36.503Z,63.18
2023-04-15T03:18:03.059Z,63.87
2023-04-15T03:20:29.640Z,64.00
2023-04-15T03:22:56.048Z,63.96
2023-04-15T03:25:22.551Z,64.11
2023-04-15T03:27:48.983Z,63.79
2023-04-15T03:30:15.454Z,64.36
2023-04-15T03:32:41.863Z,64.82
2023-04-15T03:35:08.725Z,64.39
2023-04-15T03:37:35.693Z,64.27
2023-04-15T03:40:02.386Z,65.05
2023-04-15T03:42:28.806Z,65.03
2023-04-15T03:44:55.226Z,65.17
2023-04-15T03:47:21.701Z,65.18
2023-04-15T03:49:48.143Z,65.12
2023-04-15T03:52:14.539Z,65.42
2023-04-15T03:54:40.978Z,65.45
2023-04-15T03:57:07.451Z,65.68
2023-04-15T03:59:33.914Z,65.36
2023-04-15T04:02:00.460Z,66.22
2023-04-15T04:04:26.952Z,66.34
2023-04-15T04:06:53.549Z,66.06
2023-04-15T04:09:19.992Z,66.50
2023-04-15T04:11:46.648Z,66.71
2023-04-15T04:14:13.071Z,66.93
2023-04-15T04:16:39.514Z,66.47
2023-04-15T04:19:06.327Z,66.86
2023-04-15T04:21:34.192Z,66.73
2023-04-15T04:24:00.652Z,67.06
2023-04-15T04:26:27.103Z,67.02
2023-04-15T04:28:53.539Z,67.50
2023-04-15T04:31:20.142Z,67.43
2023-04-15T04:33:46.611Z,67.29
2023-04-15T04:36:13.039Z,67.84
2023-04-15T04:38:39.451Z,67.72
2023-04-15T04:41:06.204Z,67.83
2023-04-15T04:43:32.591Z,68.28
2023-04-15T04:45:59.052Z,68.13
2023-04-15T04:48:25.972Z,68.16
2023-04-15T04:50:52.718Z,68.22
2023-04-15T04:53:19.208Z,69.06
2023-04-15T04:55:45.618Z,68.41
2023-04-15T04:58:12.503Z,68.82
2023-04-15T05:00:40.391Z,68.71
2023-04-15T05:03:07.111Z,68.91
2023-04-15T05:05:35.490Z,69.15
2023-04-15T05:08:01.986Z,69.16
2023-04-15T05:10:28.408Z,69.03
2023-04-15T05:12:54.826Z,69.52
2023-04-15T05:15:21.486Z,69.34
2023-04-15T05:17:47.931Z,70.00
2023-04-15T05:20:14.520Z,69.56
2023-04-15T05:22:41.043Z,69.98
2023-04-15T05:25:08.596Z,70.69
2023-04-15T05:27:35.024Z,70.14
2023-04-15T05:30:01.919Z,70.17
2023-04-15T05:32:28.404Z,70.33
2023-04-15T05:34:54.817Z,70.02
2023-04-15T05:37:22.277Z,69.87
2023-04-15T05:39:49.107Z,70.04
2023-04-15T05:42:15.590Z,69.91
2023-04-15T05:44:42.153Z,69.75
2023-04-15T05:47:09.705Z,69.84
2023-04-15T05:49:36.356Z,72.74
2023-04-15T05:52:03.413Z,71.83
2023-04-15T05:54:29.853Z,70.20
2023-04-15T05:56:57.630Z,70.08
2023-04-15T05:59:24.065Z,68.86
2023-04-15T06:01:52.137Z,68.23
2023-04-15T06:04:18.680Z,65.68
2023-04-15T06:06:45.198Z,65.32
2023-04-15T06:09:11.765Z,64.07
2023-04-15T06:11:38.170Z,63.78
2023-04-15T06:14:04.576Z,64.19
2023-04-15T06:16:31.165Z,63.99
2023-04-15T06:18:57.583Z,62.35
2023-04-15T06:21:24.006Z,62.12
2023-04-15T06:23:50.618Z,63.00
2023-04-15T06:26:17.033Z,64.57
2023-04-15T06:28:43.436Z,65.48
2023-04-15T06:31:09.908Z,66.22
2023-04-15T06:33:36.897Z,67.12
2023-04-15T06:36:03.407Z,67.90
2023-04-15T06:38:29.988Z,67.67
2023-04-15T06:40:56.372Z,67.86
2023-04-15T06:43:22.787Z,68.89
2023-04-15T06:45:49.252Z,69.13
2023-04-15T06:48:15.818Z,68.97
2023-04-15T06:50:42.555Z,70.09
2023-04-15T06:53:08.956Z,68.80
2023-04-15T06:55:35.438Z,69.60
2023-04-15T06:58:02.039Z,69.30
2023-04-15T07:00:28.802Z,69.70
2023-04-15T07:02:55.783Z,69.51
2023-04-15T07:05:22.491Z,69.20
2023-04-15T07:07:48.892Z,69.16
2023-04-15T07:10:15.836Z,68.79
2023-04-15T07:12:42.375Z,68.59
2023-04-15T07:15:09.049Z,68.64
2023-04-15T07:17:35.512Z,68.10
2023-04-15T07:20:02.579Z,67.38
2023-04-15T07:22:29.059Z,67.11
2023-04-15T07:24:55.770Z,67.15
2023-04-15T07:27:22.425Z,66.98
2023-04-15T07:29:49.088Z,66.50
2023-04-15T07:32:15.536Z,66.27
2023-04-15T07:34:42.220Z,65.72
2023-04-15T07:37:08.727Z,65.77
2023-04-15T07:39:35.185Z,64.91
2023-04-15T07:42:02.361Z,64.80
2023-04-15T07:44:28.927Z,64.07
2023-04-15T07:46:56.494Z,63.79
2023-04-15T07:49:23.361Z,64.15
2023-04-15T07:51:50.536Z,63.18
2023-04-15T07:54:17.148Z,63.34
2023-04-15T07:56:43.569Z,63.42
2023-04-15T07:59:10.434Z,63.23
2023-04-15T08:01:37.687Z,63.57
2023-04-15T08:04:04.223Z,62.79
2023-04-15T08:06:30.873Z,62.44
2023-04-15T08:08:57.545Z,63.00
2023-04-15T08:11:24.578Z,62.57
2023-04-15T08:13:52.672Z,62.57
2023-04-15T08:16:23.503Z,61.33
2023-04-15T08:18:51.498Z,61.56
2023-04-15T08:21:19.281Z,61.98
2023-04-15T08:23:47.396Z,61.90
2023-04-15T08:26:14.235Z,61.23
2023-04-15T08:28:41.727Z,60.87
2023-04-15T08:31:09.439Z,61.14
2023-04-15T08:33:36.298Z,61.03
2023-04-15T08:36:03.365Z,59.90
2023-04-15T08:38:29.939Z,59.28
2023-04-15T08:40:59.945Z,58.37
2023-04-15T08:43:34.928Z,58.22
2023-04-15T08:46:02.343Z,58.74
2023-04-15T08:48:29.728Z,57.81
2023-04-15T08:50:56.751Z,57.78
2023-04-15T08:53:24.764Z,58.05
2023-04-15T08:55:53.767Z,56.49
2023-04-15T08:58:20.379Z,56.11
2023-04-15T09:00:48.653Z,56.07
2023-04-15T09:03:17.545Z,56.01
2023-04-15T09:05:44.112Z,56.29
2023-04-15T09:08:10.551Z,54.55
2023-04-15T09:10:37.007Z,54.05
2023-04-15T09:13:04.519Z,53.78
2023-04-15T09:15:33.003Z,54.44
2023-04-15T09:17:59.481Z,54.28
2023-04-15T09:20:26.379Z,53.61
2023-04-15T09:22:52.865Z,53.37
2023-04-15T09:25:22.370Z,53.40
2023-04-15T09:27:49.838Z,53.27
2023-04-15T09:30:16.882Z,53.25
2023-04-15T09:33:01.101Z,52.61
2023-04-15T09:35:28.761Z,52.54
2023-04-15T09:38:09.843Z,52.22
2023-04-15T09:40:41.852Z,52.56
2023-04-15T09:43:09.874Z,52.42
2023-04-15T09:45:37.105Z,52.91
2023-04-15T09:48:18.763Z,53.28
2023-04-15T09:50:45.203Z,53.81
2023-04-15T09:53:15.492Z,53.77
2023-04-15T09:55:50.383Z,53.82
2023-04-15T09:58:30.137Z,53.64
2023-04-15T10:00:58.340Z,53.65
2023-04-15T10:03:30.050Z,53.84
2023-04-15T10:05:59.013Z,53.47
2023-04-15T10:08:27.963Z,53.97
2023-04-15T10:10:55.143Z,53.32
2023-04-15T10:13:26.822Z,52.64
2023-04-15T10:15:59.061Z,53.50
2023-04-15T10:18:28.121Z,53.86
2023-04-15T10:20:55.526Z,54.31
2023-04-15T10:23:23.215Z,54.53
2023-04-15T10:25:52.606Z,54.37
2023-04-15T10:28:20.183Z,54.57
2023-04-15T10:30:48.003Z,54.17
2023-04-15T10:33:17.171Z,54.39
2023-04-15T10:35:44.114Z,54.57
2023-04-15T10:38:34.037Z,54.82
2023-04-15T10:41:37.810Z,54.80
2023-04-15T10:44:05.388Z,54.65
2023-04-15T10:46:43.255Z,54.51
2023-04-15T10:49:14.420Z,53.47
2023-04-15T10:51:42.766Z,53.94
2023-04-15T10:54:24.294Z,54.09
2023-04-15T10:57:08.916Z,54.44
2023-04-15T10:59:59.288Z,55.21
2023-04-15T11:02:45.346Z,55.19
2023-04-15T11:05:16.370Z,55.85
2023-04-15T11:07:56.084Z,55.88
2023-04-15T11:10:25.555Z,55.93
2023-04-15T11:12:54.214Z,56.49
2023-04-15T11:15:31.050Z,56.20
2023-04-15T11:18:12.531Z,56.27
2023-04-15T11:20:41.224Z,55.74
2023-04-15T11:23:14.122Z,55.57
2023-04-15T11:25:42.821Z,55.30
2023-04-15T11:28:09.448Z,54.27
2023-04-15T11:30:37.481Z,53.18
2023-04-15T11:33:06.253Z,52.55
2023-04-15T11:35:33.422Z,52.33
2023-04-15T11:38:03.904Z,52.22
2023-04-15T11:40:31.714Z,52.77
2023-04-15T11:43:09.368Z,52.34
2023-04-15T11:45:37.328Z,52.77
2023-04-15T11:48:11.070Z,53.11
2023-04-15T11:50:40.860Z,52.10
2023-04-15T11:53:10.088Z,51.94
2023-04-15T11:55:49.341Z,51.78
2023-04-15T11:58:20.228Z,51.93
2023-04-15T12:00:55.442Z,52.09
2023-04-15T12:03:23.824Z,52.20
2023-04-15T12:06:13.389Z,51.68
2023-04-15T12:09:03.854Z,51.62
2023-04-15T12:11:37.812Z,51.54
2023-04-15T12:14:11.300Z,52.28
2023-04-15T12:16:54.157Z,52.20
2023-04-15T12:19:28.775Z,52.49
2023-04-15T12:22:04.150Z,51.60
2023-04-15T12:24:35.907Z,51.36
2023-04-15T12:27:11.215Z,51.48
2023-04-15T12:29:39.685Z,50.06
2023-04-15T12:32:11.137Z,50.45
2023-04-15T12:34:42.377Z,50.17
2023-04-15T12:37:11.261Z,50.14
2023-04-15T12:39:39.879Z,51.02
2023-04-15T12:42:07.066Z,50.77
2023-04-15T12:44:34.208Z,50.23
2023-04-15T12:47:00.741Z,50.11
2023-04-15T12:49:28.407Z,49.61
2023-04-15T12:51:56.759Z,49.93
2023-04-15T12:54:23.405Z,50.40
2023-04-15T12:56:51.183Z,50.37
2023-04-15T12:59:18.560Z,49.25
2023-04-15T13:01:45.582Z,50.59
2023-04-15T13:04:12.220Z,51.42
2023-04-15T13:06:38.706Z,51.78
2023-04-15T13:09:06.143Z,51.74
2023-04-15T13:11:36.705Z,52.36
2023-04-15T13:14:08.960Z,51.87
2023-04-15T13:16:35.902Z,51.88
2023-04-15T13:19:03.626Z,50.82
2023-04-15T13:21:32.215Z,51.23
2023-04-15T13:23:59.358Z,50.29
2023-04-15T13:26:25.777Z,49.67
2023-04-15T13:28:52.453Z,48.57
2023-04-15T13:31:18.863Z,48.40
2023-04-15T13:33:45.417Z,48.49
2023-04-15T13:36:12.002Z,49.06
2023-04-15T13:38:38.474Z,49.84
2023-04-15T13:41:05.020Z,50.74
2023-04-15T13:43:33.623Z,51.13
2023-04-15T13:46:00.217Z,51.73
2023-04-15T13:48:26.679Z,52.35
2023-04-15T13:50:53.072Z,53.52
2023-04-15T13:53:19.536Z,54.53
2023-04-15T13:55:46.321Z,54.93
2023-04-15T13:58:12.721Z,56.02
2023-04-15T14:00:39.219Z,56.05
2023-04-15T14:03:05.828Z,56.41
2023-04-15T14:05:32.865Z,56.29
2023-04-15T14:08:00.001Z,57.47
2023-04-15T14:10:26.389Z,57.74
2023-04-15T14:12:52.846Z,58.01
2023-04-15T14:15:19.311Z,57.73
2023-04-15T14:17:45.953Z,57.73
2023-04-15T14:20:13.541Z,56.77
2023-04-15T14:22:41.109Z,56.55
2023-04-15T14:25:07.872Z,56.74
2023-04-15T14:27:34.304Z,57.17
2023-04-15T14:30:00.875Z,58.46
2023-04-15T14:32:27.307Z,58.46
2023-04-15T14:34:53.799Z,58.28
2023-04-15T14:37:20.459Z,57.81
2023-04-15T14:39:46.864Z,56.96
2023-04-15T14:42:13.273Z,57.49
2023-04-15T14:44:39.697Z,57.86
2023-04-15T14:47:06.227Z,57.90
2023-04-15T14:49:32.772Z,58.48
2023-04-15T14:51:59.179Z,59.09
2023-04-15T14:54:25.724Z,59.30
2023-04-15T14:56:52.262Z,59.16
2023-04-15T14:59:18.661Z,59.39
2023-04-15T15:01:45.534Z,59.23
2023-04-15T15:04:12.983Z,59.53
2023-04-15T15:06:40.135Z,59.82
2023-04-15T15:09:06.774Z,60.04
2023-04-15T15:11:33.452Z,60.24
2023-04-15T15:13:59.988Z,60.31
2023-04-15T15:16:27.673Z,60.05
2023-04-15T15:18:54.120Z,59.39
2023-04-15T15:21:20.622Z,59.69
2023-04-15T15:23:48.251Z,59.85
2023-04-15T15:26:15.064Z,60.81
2023-04-15T15:28:42.196Z,61.08
2023-04-15T15:31:08.838Z,60.73
2023-04-15T15:33:35.301Z,60.41
2023-04-15T15:36:02.163Z,60.75
2023-04-15T15:38:28.582Z,60.74
2023-04-15T15:40:55.012Z,61.03
2023-04-15T15:43:21.471Z,60.75
2023-04-15T15:45:51.627Z,61.33
2023-04-15T15:48:18.541Z,61.83
2023-04-15T15:50:45.762Z,62.52
2023-04-15T15:53:12.436Z,63.00
2023-04-15T15:55:38.847Z,63.48
2023-04-15T15:58:05.257Z,63.90
2023-04-15T16:00:31.705Z,63.46
2023-04-15T16:05:27.565Z,63.31
2023-04-15T16:07:54.092Z,62.70
2023-04-15T16:10:20.536Z,62.89
2023-04-15T16:12:47.048Z,63.42
2023-04-15T16:15:13.876Z,63.39
2023-04-15T16:17:40.352Z,63.78
2023-04-15T16:20:07.408Z,63.90
2023-04-15T16:22:37.361Z,63.75
2023-04-15T16:25:04.067Z,63.66
2023-04-15T16:27:30.528Z,63.42
2023-04-15T16:29:57.024Z,63.05
2023-04-15T16:32:23.612Z,63.08
2023-04-15T16:34:50.085Z,62.72
2023-04-15T16:37:16.516Z,63.02
2023-04-15T16:39:42.999Z,62.75
2023-04-15T16:42:10.167Z,62.72
2023-04-15T16:44:36.594Z,62.49
2023-04-15T16:47:03.155Z,62.67
2023-04-15T16:49:30.284Z,62.91
2023-04-15T16:51:57.244Z,63.47
2023-04-15T16:54:23.664Z,62.99
2023-04-15T16:56:50.075Z,63.34
2023-04-15T16:59:16.607Z,62.97
2023-04-15T17:01:43.087Z,62.86
2023-04-15T17:04:09.605Z,63.27
2023-04-15T17:06:36.258Z,63.86
2023-04-15T17:09:02.916Z,64.54
2023-04-15T17:11:29.425Z,64.36
2023-04-15T17:13:55.941Z,64.98
2023-04-15T17:16:22.440Z,64.98
2023-04-15T17:18:50.427Z,65.04
2023-04-15T17:21:17.645Z,65.12
2023-04-15T17:23:44.112Z,64.94
2023-04-15T17:26:10.714Z,65.10
2023-04-15T17:28:37.242Z,65.29
2023-04-15T17:31:04.678Z,64.66
2023-04-15T17:33:56.265Z,64.91
2023-04-15T17:36:17.530Z,65.43
2023-04-15T17:38:43.954Z,65.62
2023-04-15T17:41:10.643Z,65.57
2023-04-15T17:43:37.147Z,65.55
2023-04-15T17:46:03.699Z,65.54
2023-04-15T17:48:30.154Z,66.28
2023-04-15T17:50:56.663Z,66.54
2023-04-15T17:53:23.121Z,66.26
2023-04-15T17:55:53.037Z,66.62
2023-04-15T17:58:20.109Z,66.48
2023-04-15T18:00:46.912Z,66.17
2023-04-15T18:03:13.559Z,66.09
2023-04-15T18:05:42.429Z,66.13
2023-04-15T18:08:09.501Z,66.16
2023-04-15T18:10:36.891Z,66.21
2023-04-15T18:13:03.467Z,66.46
2023-04-15T18:15:31.240Z,66.66
2023-04-15T18:18:01.173Z,66.94
2023-04-15T18:20:28.067Z,66.75
2023-04-15T18:22:54.657Z,67.30
2023-04-15T18:25:21.288Z,67.23
2023-04-15T18:27:47.750Z,67.11
2023-04-15T18:30:14.180Z,67.27
2023-04-15T18:32:41.122Z,67.13
2023-04-15T18:35:08.042Z,67.12
2023-04-15T18:37:34.705Z,67.05
2023-04-15T18:40:01.342Z,67.13
2023-04-15T18:42:27.788Z,67.32
2023-04-15T18:44:54.602Z,67.02
2023-04-15T18:47:21.212Z,67.03
2023-04-15T18:49:47.716Z,67.46
2023-04-15T18:52:14.175Z,68.03
2023-04-15T18:54:40.601Z,67.85
2023-04-15T18:57:07.228Z,67.93
2023-04-15T18:59:34.007Z,67.81
2023-04-15T19:02:01.421Z,67.62
2023-04-15T19:04:29.377Z,67.25
2023-04-15T19:06:57.286Z,67.69
2023-04-15T19:09:23.718Z,67.27
2023-04-15T19:11:50.367Z,67.63
2023-04-15T19:14:17.759Z,67.51
2023-04-15T19:16:44.228Z,67.47
2023-04-15T19:19:10.651Z,67.84
2023-04-15T19:21:37.072Z,67.46
2023-04-15T19:24:03.640Z,67.84
2023-04-15T19:26:30.201Z,68.02
2023-04-15T19:28:58.911Z,68.12
2023-04-15T19:31:26.203Z,68.74
2023-04-15T19:33:52.920Z,68.24
2023-04-15T19:36:19.453Z,67.91
2023-04-15T19:38:46.005Z,68.05
2023-04-15T19:41:12.523Z,68.43
2023-04-15T19:43:38.926Z,68.07
2023-04-15T19:46:06.432Z,68.19
2023-04-15T19:48:32.966Z,68.01
2023-04-15T19:50:59.817Z,68.35
2023-04-15T19:53:26.401Z,68.14
2023-04-15T19:55:52.796Z,67.97
2023-04-15T19:58:19.183Z,68.19
2023-04-15T20:00:45.600Z,68.29
2023-04-15T20:03:12.158Z,68.00
2023-04-15T20:05:38.691Z,67.91
2023-04-15T20:08:05.189Z,68.40
2023-04-15T20:10:31.957Z,68.43
2023-04-15T20:12:58.469Z,68.60
2023-04-15T20:15:25.016Z,68.38
2023-04-15T20:17:51.701Z,68.91
2023-04-15T20:20:18.511Z,68.88
2023-04-15T20:22:44.930Z,68.50
2023-04-15T20:25:11.473Z,68.96
2023-04-15T20:27:37.950Z,69.15
2023-04-15T20:30:05.096Z,69.10
2023-04-15T20:32:35.254Z,68.97
2023-04-15T20:35:03.341Z,69.21
2023-04-15T20:37:30.973Z,69.46
2023-04-15T20:39:57.410Z,68.86
2023-04-15T20:42:23.816Z,68.16
2023-04-15T20:44:50.491Z,67.33
2023-04-15T20:47:17.058Z,67.24
2023-04-15T20:49:43.617Z,67.13
2023-04-15T20:52:10.589Z,67.49
2023-04-15T20:54:37.027Z,67.80
2023-04-15T20:57:03.568Z,68.60
2023-04-15T20:59:30.486Z,69.15
2023-04-15T21:01:57.450Z,69.18
2023-04-15T21:04:24.485Z,69.79
2023-04-15T21:06:52.576Z,69.77
2023-04-15T21:09:19.129Z,70.06
2023-04-15T21:12:00.346Z,69.98
2023-04-15T21:14:27.346Z,68.86
2023-04-15T21:16:53.827Z,68.88
2023-04-15T21:19:20.209Z,69.45
2023-04-15T21:21:46.616Z,69.95
2023-04-15T21:24:13.036Z,70.44
2023-04-15T21:26:39.428Z,70.27
2023-04-15T21:29:07.854Z,70.76
2023-04-15T21:31:36.047Z,70.95
2023-04-15T21:34:02.547Z,71.50
2023-04-15T21:36:28.991Z,71.71
2023-04-15T21:38:55.385Z,72.16
2023-04-15T21:41:21.831Z,72.49
2023-04-15T21:43:48.435Z,72.74
2023-04-15T21:46:23.090Z,72.39
2023-04-15T21:48:53.152Z,72.67
2023-04-15T21:51:19.980Z,72.68
2023-04-15T21:53:46.764Z,72.69
2023-04-15T21:56:13.268Z,72.67
2023-04-15T21:58:39.683Z,73.29
2023-04-15T22:01:06.450Z,73.08
2023-04-15T22:03:34.527Z,73.03
2023-04-15T22:06:04.431Z,73.23
2023-04-15T22:08:44.550Z,73.21
2023-04-15T22:11:27.412Z,72.84
2023-04-15T22:13:54.671Z,73.33
2023-04-15T22:16:21.178Z,73.87
2023-04-15T22:18:47.674Z,73.70
2023-04-15T22:21:14.448Z,73.77
2023-04-15T22:23:40.947Z,74.18
2023-04-15T22:26:07.710Z,75.19
2023-04-15T22:28:34.120Z,75.39
2023-04-15T22:31:00.611Z,75.82
2023-04-15T22:33:27.063Z,76.22
2023-04-15T22:35:53.465Z,76.27
2023-04-15T22:38:19.880Z,76.72
2023-04-15T22:40:46.452Z,77.41
2023-04-15T22:43:12.868Z,77.16
2023-04-15T22:45:39.265Z,77.29
2023-04-15T22:48:05.875Z,78.01
2023-04-15T22:50:32.351Z,77.61
2023-04-15T22:52:58.762Z,77.72
2023-04-15T22:55:25.232Z,77.45
2023-04-15T22:57:52.671Z,77.81
2023-04-15T23:00:19.278Z,78.21
2023-04-15T23:02:46.107Z,78.56
2023-04-15T23:05:13.297Z,78.96
2023-04-15T23:07:40.147Z,78.72
2023-04-15T23:10:08.062Z,79.66
2023-04-15T23:12:34.875Z,79.62
2023-04-15T23:15:01.310Z,79.12
2023-04-15T23:17:27.771Z,79.41
2023-04-15T23:19:54.224Z,79.86
2023-04-15T23:22:20.727Z,79.87
2023-04-15T23:24:47.112Z,80.10
2023-04-15T23:27:13.504Z,79.97
2023-04-15T23:29:40.008Z,80.54
2023-04-15T23:32:06.704Z,80.77
2023-04-15T23:34:33.217Z,80.33
2023-04-15T23:36:59.617Z,81.16
2023-04-15T23:39:26.513Z,81.17
2023-04-15T23:41:53.298Z,81.02
2023-04-15T23:44:20.329Z,80.67
2023-04-15T23:46:46.786Z,80.98
2023-04-15T23:49:13.358Z,80.81
2023-04-15T23:51:39.773Z,80.65
2023-04-15T23:54:06.225Z,80.75
2023-04-15T23:56:32.599Z,80.77
2023-04-15T23:58:59.009Z,81.08
